sensor_id;sensor_type;location;lat;lon;timestamp;temperature;humidity
21425;DHT22;10873;51.132;16.848;2022-12-10T00:02:07;24.50;45.50
21425;DHT22;10873;51.132;16.848;2022-12-10T00:04:36;24.50;45.60
21425;DHT22;10873;51.132;16.848;2022-12-10T00:07:16;24.40;45.60
21425;DHT22;10873;51.132;16.848;2022-12-10T00:09:53;24.40;45.60
21425;DHT22;10873;51.132;16.848;2022-12-10T00:12:33;24.40;45.60
21425;DHT22;10873;51.132;16.848;2022-12-10T00:15:06;24.40;45.60
21425;DHT22;10873;51.132;16.848;2022-12-10T00:17:33;24.40;45.40
21425;DHT22;10873;51.132;16.848;2022-12-10T00:20:12;24.40;45.30
21425;DHT22;10873;51.132;16.848;2022-12-10T00:22:53;24.40;45.30
21425;DHT22;10873;51.132;16.848;2022-12-10T00:25:23;24.40;45.40
21425;DHT22;10873;51.132;16.848;2022-12-10T00:27:52;24.40;45.50
21425;DHT22;10873;51.132;16.848;2022-12-10T00:30:18;24.40;45.50
21425;DHT22;10873;51.132;16.848;2022-12-10T00:32:44;24.40;45.50
21425;DHT22;10873;51.132;16.848;2022-12-10T00:35:10;24.40;45.50
21425;DHT22;10873;51.132;16.848;2022-12-10T00:37:36;24.40;45.60
21425;DHT22;10873;51.132;16.848;2022-12-10T00:40:02;24.40;45.50
21425;DHT22;10873;51.132;16.848;2022-12-10T00:42:29;24.30;45.30
21425;DHT22;10873;51.132;16.848;2022-12-10T00:44:56;24.30;45.20
21425;DHT22;10873;51.132;16.848;2022-12-10T00:47:22;24.30;45.20
21425;DHT22;10873;51.132;16.848;2022-12-10T00:49:48;24.30;45.20
21425;DHT22;10873;51.132;16.848;2022-12-10T00:52:14;24.40;45.30
21425;DHT22;10873;51.132;16.848;2022-12-10T00:54:41;24.30;45.50
21425;DHT22;10873;51.132;16.848;2022-12-10T00:57:07;24.30;45.50
21425;DHT22;10873;51.132;16.848;2022-12-10T00:59:35;24.30;45.60
21425;DHT22;10873;51.132;16.848;2022-12-10T01:02:00;24.30;45.60
21425;DHT22;10873;51.132;16.848;2022-12-10T01:04:26;24.30;45.60
21425;DHT22;10873;51.132;16.848;2022-12-10T01:06:53;24.30;45.40
21425;DHT22;10873;51.132;16.848;2022-12-10T01:09:22;24.30;45.30
21425;DHT22;10873;51.132;16.848;2022-12-10T01:11:49;24.30;46.00
21425;DHT22;10873;51.132;16.848;2022-12-10T01:14:18;24.30;45.30
21425;DHT22;10873;51.132;16.848;2022-12-10T01:16:45;24.30;45.30
21425;DHT22;10873;51.132;16.848;2022-12-10T01:19:12;24.30;45.50
21425;DHT22;10873;51.132;16.848;2022-12-10T01:21:38;24.30;45.50
21425;DHT22;10873;51.132;16.848;2022-12-10T01:24:05;24.30;45.60
21425;DHT22;10873;51.132;16.848;2022-12-10T01:26:32;24.30;45.60
21425;DHT22;10873;51.132;16.848;2022-12-10T01:28:59;24.30;45.60
21425;DHT22;10873;51.132;16.848;2022-12-10T01:31:26;24.30;45.60
21425;DHT22;10873;51.132;16.848;2022-12-10T01:33:55;24.30;45.50
21425;DHT22;10873;51.132;16.848;2022-12-10T01:36:24;24.30;45.50
21425;DHT22;10873;51.132;16.848;2022-12-10T01:38:51;24.30;45.50
21425;DHT22;10873;51.132;16.848;2022-12-10T01:41:19;24.30;45.50
21425;DHT22;10873;51.132;16.848;2022-12-10T01:43:52;24.30;45.70
21425;DHT22;10873;51.132;16.848;2022-12-10T01:46:18;24.30;45.70
21425;DHT22;10873;51.132;16.848;2022-12-10T01:48:45;24.30;45.70
21425;DHT22;10873;51.132;16.848;2022-12-10T01:51:13;24.30;45.80
21425;DHT22;10873;51.132;16.848;2022-12-10T01:53:41;24.30;45.80
21425;DHT22;10873;51.132;16.848;2022-12-10T01:56:09;24.30;45.80
21425;DHT22;10873;51.132;16.848;2022-12-10T01:58:35;24.30;45.70
21425;DHT22;10873;51.132;16.848;2022-12-10T02:01:07;24.30;45.70
21425;DHT22;10873;51.132;16.848;2022-12-10T02:03:41;24.30;45.70
21425;DHT22;10873;51.132;16.848;2022-12-10T02:06:17;24.30;45.70
21425;DHT22;10873;51.132;16.848;2022-12-10T02:08:53;24.30;45.70
21425;DHT22;10873;51.132;16.848;2022-12-10T02:11:29;24.30;45.60
21425;DHT22;10873;51.132;16.848;2022-12-10T02:14:02;24.30;45.70
21425;DHT22;10873;51.132;16.848;2022-12-10T02:16:33;24.30;45.70
21425;DHT22;10873;51.132;16.848;2022-12-10T02:19:06;24.30;45.70
21425;DHT22;10873;51.132;16.848;2022-12-10T02:21:36;24.30;45.70
21425;DHT22;10873;51.132;16.848;2022-12-10T02:24:06;24.30;45.70
21425;DHT22;10873;51.132;16.848;2022-12-10T02:26:40;24.30;45.70
21425;DHT22;10873;51.132;16.848;2022-12-10T02:29:13;24.30;45.70
21425;DHT22;10873;51.132;16.848;2022-12-10T02:31:44;24.30;45.60
21425;DHT22;10873;51.132;16.848;2022-12-10T02:34:12;24.30;45.60
21425;DHT22;10873;51.132;16.848;2022-12-10T02:36:42;24.30;45.60
21425;DHT22;10873;51.132;16.848;2022-12-10T02:39:11;24.30;45.70
21425;DHT22;10873;51.132;16.848;2022-12-10T02:41:42;24.30;45.70
21425;DHT22;10873;51.132;16.848;2022-12-10T02:44:13;24.30;45.70
21425;DHT22;10873;51.132;16.848;2022-12-10T02:46:42;24.30;45.70
21425;DHT22;10873;51.132;16.848;2022-12-10T02:49:12;24.30;45.70
21425;DHT22;10873;51.132;16.848;2022-12-10T02:51:39;24.30;45.60
21425;DHT22;10873;51.132;16.848;2022-12-10T02:54:31;24.30;45.60
21425;DHT22;10873;51.132;16.848;2022-12-10T02:56:57;24.30;45.60
21425;DHT22;10873;51.132;16.848;2022-12-10T02:59:29;24.30;45.50
21425;DHT22;10873;51.132;16.848;2022-12-10T03:02:05;24.30;45.60
21425;DHT22;10873;51.132;16.848;2022-12-10T03:04:38;24.30;45.60
21425;DHT22;10873;51.132;16.848;2022-12-10T03:07:10;24.30;45.60
21425;DHT22;10873;51.132;16.848;2022-12-10T03:09:40;24.30;45.70
21425;DHT22;10873;51.132;16.848;2022-12-10T03:12:15;24.30;45.70
21425;DHT22;10873;51.132;16.848;2022-12-10T03:14:44;24.30;45.70
21425;DHT22;10873;51.132;16.848;2022-12-10T03:17:12;24.30;45.70
21425;DHT22;10873;51.132;16.848;2022-12-10T03:19:43;24.30;45.60
21425;DHT22;10873;51.132;16.848;2022-12-10T03:22:12;24.30;45.60
21425;DHT22;10873;51.132;16.848;2022-12-10T03:24:41;24.30;45.60
21425;DHT22;10873;51.132;16.848;2022-12-10T03:27:09;24.30;45.60
21425;DHT22;10873;51.132;16.848;2022-12-10T03:29:40;24.30;45.60
21425;DHT22;10873;51.132;16.848;2022-12-10T03:32:09;24.30;45.50
21425;DHT22;10873;51.132;16.848;2022-12-10T03:34:37;24.30;45.50
21425;DHT22;10873;51.132;16.848;2022-12-10T03:37:04;24.30;45.60
21425;DHT22;10873;51.132;16.848;2022-12-10T03:39:31;24.30;45.70
21425;DHT22;10873;51.132;16.848;2022-12-10T03:41:57;24.30;45.70
21425;DHT22;10873;51.132;16.848;2022-12-10T03:44:28;24.30;45.70
21425;DHT22;10873;51.132;16.848;2022-12-10T03:46:54;24.30;45.70
21425;DHT22;10873;51.132;16.848;2022-12-10T03:49:22;24.30;45.60
21425;DHT22;10873;51.132;16.848;2022-12-10T03:51:48;24.30;45.60
21425;DHT22;10873;51.132;16.848;2022-12-10T03:54:14;24.30;45.60
21425;DHT22;10873;51.132;16.848;2022-12-10T03:56:40;24.30;45.60
21425;DHT22;10873;51.132;16.848;2022-12-10T03:59:06;24.30;45.50
21425;DHT22;10873;51.132;16.848;2022-12-10T04:01:32;24.30;45.50
21425;DHT22;10873;51.132;16.848;2022-12-10T04:03:58;24.30;45.50
21425;DHT22;10873;51.132;16.848;2022-12-10T04:06:25;24.30;45.40
21425;DHT22;10873;51.132;16.848;2022-12-10T04:08:52;24.30;45.40
21425;DHT22;10873;51.132;16.848;2022-12-10T04:11:18;24.30;45.50
21425;DHT22;10873;51.132;16.848;2022-12-10T04:13:45;24.30;45.50
21425;DHT22;10873;51.132;16.848;2022-12-10T04:16:30;24.30;45.60
21425;DHT22;10873;51.132;16.848;2022-12-10T04:18:58;24.30;45.60
21425;DHT22;10873;51.132;16.848;2022-12-10T04:21:26;24.30;45.60
21425;DHT22;10873;51.132;16.848;2022-12-10T04:24:13;24.30;45.60
21425;DHT22;10873;51.132;16.848;2022-12-10T04:27:01;24.30;45.50
21425;DHT22;10873;51.132;16.848;2022-12-10T04:29:29;24.30;45.50
21425;DHT22;10873;51.132;16.848;2022-12-10T04:31:56;24.30;45.50
21425;DHT22;10873;51.132;16.848;2022-12-10T04:34:23;24.30;45.50
21425;DHT22;10873;51.132;16.848;2022-12-10T04:36:51;24.30;45.50
21425;DHT22;10873;51.132;16.848;2022-12-10T04:39:17;24.30;45.40
21425;DHT22;10873;51.132;16.848;2022-12-10T04:41:45;24.30;46.10
21425;DHT22;10873;51.132;16.848;2022-12-10T04:44:11;24.30;45.50
21425;DHT22;10873;51.132;16.848;2022-12-10T04:46:38;24.30;45.40
21425;DHT22;10873;51.132;16.848;2022-12-10T04:49:05;24.30;45.50
21425;DHT22;10873;51.132;16.848;2022-12-10T04:51:32;24.30;45.50
21425;DHT22;10873;51.132;16.848;2022-12-10T04:53:59;24.30;45.50
21425;DHT22;10873;51.132;16.848;2022-12-10T04:56:25;24.30;45.60
21425;DHT22;10873;51.132;16.848;2022-12-10T04:58:52;24.30;45.60
21425;DHT22;10873;51.132;16.848;2022-12-10T05:01:18;24.30;45.50
21425;DHT22;10873;51.132;16.848;2022-12-10T05:03:44;24.30;45.50
21425;DHT22;10873;51.132;16.848;2022-12-10T05:06:13;24.30;45.50
21425;DHT22;10873;51.132;16.848;2022-12-10T05:08:39;24.30;45.40
21425;DHT22;10873;51.132;16.848;2022-12-10T05:11:09;24.30;45.40
21425;DHT22;10873;51.132;16.848;2022-12-10T05:13:36;24.30;45.40
21425;DHT22;10873;51.132;16.848;2022-12-10T05:16:02;24.30;45.30
21425;DHT22;10873;51.132;16.848;2022-12-10T05:18:29;24.30;45.20
21425;DHT22;10873;51.132;16.848;2022-12-10T05:20:58;24.30;45.20
21425;DHT22;10873;51.132;16.848;2022-12-10T05:23:24;24.30;45.20
21425;DHT22;10873;51.132;16.848;2022-12-10T05:26:00;24.30;45.20
21425;DHT22;10873;51.132;16.848;2022-12-10T05:28:29;24.30;45.20
21425;DHT22;10873;51.132;16.848;2022-12-10T05:30:55;24.30;45.10
21425;DHT22;10873;51.132;16.848;2022-12-10T05:33:21;24.30;45.10
21425;DHT22;10873;51.132;16.848;2022-12-10T05:35:53;24.30;45.10
21425;DHT22;10873;51.132;16.848;2022-12-10T05:38:19;24.30;45.20
21425;DHT22;10873;51.132;16.848;2022-12-10T05:40:45;24.30;45.20
21425;DHT22;10873;51.132;16.848;2022-12-10T05:43:12;24.30;45.30
21425;DHT22;10873;51.132;16.848;2022-12-10T05:45:39;24.30;45.30
21425;DHT22;10873;51.132;16.848;2022-12-10T05:48:05;24.30;45.30
21425;DHT22;10873;51.132;16.848;2022-12-10T05:50:32;24.30;45.20
21425;DHT22;10873;51.132;16.848;2022-12-10T05:52:59;24.30;45.20
21425;DHT22;10873;51.132;16.848;2022-12-10T05:55:25;24.30;45.20
21425;DHT22;10873;51.132;16.848;2022-12-10T05:57:53;24.30;45.20
21425;DHT22;10873;51.132;16.848;2022-12-10T06:00:19;24.30;45.20
21425;DHT22;10873;51.132;16.848;2022-12-10T06:02:47;24.30;45.20
21425;DHT22;10873;51.132;16.848;2022-12-10T06:05:13;24.30;45.20
21425;DHT22;10873;51.132;16.848;2022-12-10T06:07:40;24.30;45.20
21425;DHT22;10873;51.132;16.848;2022-12-10T06:10:06;24.30;45.20
21425;DHT22;10873;51.132;16.848;2022-12-10T06:12:32;24.30;45.10
21425;DHT22;10873;51.132;16.848;2022-12-10T06:14:58;24.30;45.00
21425;DHT22;10873;51.132;16.848;2022-12-10T06:17:25;24.30;45.10
21425;DHT22;10873;51.132;16.848;2022-12-10T06:19:52;24.30;45.10
21425;DHT22;10873;51.132;16.848;2022-12-10T06:22:18;24.30;45.20
21425;DHT22;10873;51.132;16.848;2022-12-10T06:24:44;24.30;45.10
21425;DHT22;10873;51.132;16.848;2022-12-10T06:27:10;24.30;45.10
21425;DHT22;10873;51.132;16.848;2022-12-10T06:29:36;24.30;45.10
21425;DHT22;10873;51.132;16.848;2022-12-10T06:32:02;24.30;44.90
21425;DHT22;10873;51.132;16.848;2022-12-10T06:34:29;24.30;45.60
21425;DHT22;10873;51.132;16.848;2022-12-10T06:36:56;24.30;44.90
21425;DHT22;10873;51.132;16.848;2022-12-10T06:39:22;24.30;45.10
21425;DHT22;10873;51.132;16.848;2022-12-10T06:41:49;24.30;45.10
21425;DHT22;10873;51.132;16.848;2022-12-10T06:44:15;24.30;45.20
21425;DHT22;10873;51.132;16.848;2022-12-10T06:46:41;24.30;45.20
21425;DHT22;10873;51.132;16.848;2022-12-10T06:49:08;24.30;45.30
21425;DHT22;10873;51.132;16.848;2022-12-10T06:51:34;24.30;45.30
21425;DHT22;10873;51.132;16.848;2022-12-10T06:54:02;24.30;45.30
21425;DHT22;10873;51.132;16.848;2022-12-10T06:56:28;24.30;45.30
21425;DHT22;10873;51.132;16.848;2022-12-10T06:58:54;24.30;45.30
21425;DHT22;10873;51.132;16.848;2022-12-10T07:01:22;24.30;46.00
21425;DHT22;10873;51.132;16.848;2022-12-10T07:03:52;24.30;45.30
21425;DHT22;10873;51.132;16.848;2022-12-10T07:06:19;24.30;45.40
21425;DHT22;10873;51.132;16.848;2022-12-10T07:08:46;24.30;45.30
21425;DHT22;10873;51.132;16.848;2022-12-10T07:11:16;24.30;45.40
21425;DHT22;10873;51.132;16.848;2022-12-10T07:13:42;24.30;45.40
21425;DHT22;10873;51.132;16.848;2022-12-10T07:16:13;24.40;45.40
21425;DHT22;10873;51.132;16.848;2022-12-10T07:18:39;24.40;45.40
21425;DHT22;10873;51.132;16.848;2022-12-10T07:21:13;24.30;45.40
21425;DHT22;10873;51.132;16.848;2022-12-10T07:23:39;24.30;45.50
21425;DHT22;10873;51.132;16.848;2022-12-10T07:26:05;24.30;45.60
21425;DHT22;10873;51.132;16.848;2022-12-10T07:28:32;24.30;45.70
21425;DHT22;10873;51.132;16.848;2022-12-10T07:31:00;24.30;45.80
21425;DHT22;10873;51.132;16.848;2022-12-10T07:33:26;24.30;45.80
21425;DHT22;10873;51.132;16.848;2022-12-10T07:35:53;24.30;45.80
21425;DHT22;10873;51.132;16.848;2022-12-10T07:38:19;24.30;45.80
21425;DHT22;10873;51.132;16.848;2022-12-10T07:40:45;24.30;45.90
21425;DHT22;10873;51.132;16.848;2022-12-10T07:43:11;24.30;45.90
21425;DHT22;10873;51.132;16.848;2022-12-10T07:45:39;24.30;45.90
21425;DHT22;10873;51.132;16.848;2022-12-10T07:48:05;24.30;45.80
21425;DHT22;10873;51.132;16.848;2022-12-10T07:50:31;24.30;46.50
21425;DHT22;10873;51.132;16.848;2022-12-10T07:52:57;24.30;46.50
21425;DHT22;10873;51.132;16.848;2022-12-10T07:55:23;24.30;48.00
21425;DHT22;10873;51.132;16.848;2022-12-10T07:57:49;24.30;50.60
21425;DHT22;10873;51.132;16.848;2022-12-10T08:00:16;24.30;50.00
21425;DHT22;10873;51.132;16.848;2022-12-10T08:02:43;24.30;49.90
21425;DHT22;10873;51.132;16.848;2022-12-10T08:05:09;24.30;49.60
21425;DHT22;10873;51.132;16.848;2022-12-10T08:07:36;24.30;49.40
21425;DHT22;10873;51.132;16.848;2022-12-10T08:10:03;24.30;49.20
21425;DHT22;10873;51.132;16.848;2022-12-10T08:12:28;24.30;49.00
21425;DHT22;10873;51.132;16.848;2022-12-10T08:14:55;24.30;48.80
21425;DHT22;10873;51.132;16.848;2022-12-10T08:17:21;24.20;48.40
21425;DHT22;10873;51.132;16.848;2022-12-10T08:19:48;24.20;48.40
21425;DHT22;10873;51.132;16.848;2022-12-10T08:22:16;24.20;48.30
21425;DHT22;10873;51.132;16.848;2022-12-10T08:24:42;24.20;48.20
21425;DHT22;10873;51.132;16.848;2022-12-10T08:27:08;24.20;48.10
21425;DHT22;10873;51.132;16.848;2022-12-10T08:29:34;24.20;48.10
21425;DHT22;10873;51.132;16.848;2022-12-10T08:32:00;24.20;48.00
21425;DHT22;10873;51.132;16.848;2022-12-10T08:34:26;24.20;47.80
21425;DHT22;10873;51.132;16.848;2022-12-10T08:36:54;24.20;47.70
21425;DHT22;10873;51.132;16.848;2022-12-10T08:39:20;24.20;47.60
21425;DHT22;10873;51.132;16.848;2022-12-10T08:41:46;24.20;47.50
21425;DHT22;10873;51.132;16.848;2022-12-10T08:44:12;24.20;47.40
21425;DHT22;10873;51.132;16.848;2022-12-10T08:46:39;24.20;47.20
21425;DHT22;10873;51.132;16.848;2022-12-10T08:49:05;24.20;47.20
21425;DHT22;10873;51.132;16.848;2022-12-10T08:51:32;24.20;47.20
21425;DHT22;10873;51.132;16.848;2022-12-10T08:54:00;24.20;47.10
21425;DHT22;10873;51.132;16.848;2022-12-10T08:56:26;24.20;46.90
21425;DHT22;10873;51.132;16.848;2022-12-10T08:58:52;24.20;46.80
21425;DHT22;10873;51.132;16.848;2022-12-10T09:01:19;24.20;46.80
21425;DHT22;10873;51.132;16.848;2022-12-10T09:03:45;24.20;47.20
21425;DHT22;10873;51.132;16.848;2022-12-10T09:06:13;24.20;47.60
21425;DHT22;10873;51.132;16.848;2022-12-10T09:08:40;24.30;47.60
21425;DHT22;10873;51.132;16.848;2022-12-10T09:11:09;24.30;47.50
21425;DHT22;10873;51.132;16.848;2022-12-10T09:13:35;24.20;47.30
21425;DHT22;10873;51.132;16.848;2022-12-10T09:16:02;24.20;47.20
21425;DHT22;10873;51.132;16.848;2022-12-10T09:18:28;24.20;47.20
21425;DHT22;10873;51.132;16.848;2022-12-10T09:20:54;24.20;47.20
21425;DHT22;10873;51.132;16.848;2022-12-10T09:23:20;24.20;47.20
21425;DHT22;10873;51.132;16.848;2022-12-10T09:25:46;24.20;47.20
21425;DHT22;10873;51.132;16.848;2022-12-10T09:28:14;24.20;47.20
21425;DHT22;10873;51.132;16.848;2022-12-10T09:30:40;24.20;47.20
21425;DHT22;10873;51.132;16.848;2022-12-10T09:33:06;24.20;47.30
21425;DHT22;10873;51.132;16.848;2022-12-10T09:35:32;24.20;47.30
21425;DHT22;10873;51.132;16.848;2022-12-10T09:37:59;24.20;47.20
21425;DHT22;10873;51.132;16.848;2022-12-10T09:40:32;24.20;46.90
21425;DHT22;10873;51.132;16.848;2022-12-10T09:43:04;24.20;46.70
21425;DHT22;10873;51.132;16.848;2022-12-10T09:45:40;24.20;46.60
21425;DHT22;10873;51.132;16.848;2022-12-10T09:48:17;24.20;46.50
21425;DHT22;10873;51.132;16.848;2022-12-10T09:50:50;24.20;46.40
21425;DHT22;10873;51.132;16.848;2022-12-10T09:53:20;24.20;46.30
21425;DHT22;10873;51.132;16.848;2022-12-10T09:55:48;24.20;46.90
21425;DHT22;10873;51.132;16.848;2022-12-10T09:58:18;24.20;46.20
21425;DHT22;10873;51.132;16.848;2022-12-10T10:00:47;24.20;46.20
21425;DHT22;10873;51.132;16.848;2022-12-10T10:03:15;24.20;46.20
21425;DHT22;10873;51.132;16.848;2022-12-10T10:05:44;24.20;46.30
21425;DHT22;10873;51.132;16.848;2022-12-10T10:08:14;24.20;46.20
21425;DHT22;10873;51.132;16.848;2022-12-10T10:10:44;24.20;46.10
21425;DHT22;10873;51.132;16.848;2022-12-10T10:13:15;24.20;46.10
21425;DHT22;10873;51.132;16.848;2022-12-10T10:15:46;24.20;46.10
21425;DHT22;10873;51.132;16.848;2022-12-10T10:18:20;24.20;46.10
21425;DHT22;10873;51.132;16.848;2022-12-10T10:20:49;24.10;46.70
21425;DHT22;10873;51.132;16.848;2022-12-10T10:23:15;24.10;46.20
21425;DHT22;10873;51.132;16.848;2022-12-10T10:25:42;24.10;46.20
21425;DHT22;10873;51.132;16.848;2022-12-10T10:28:11;24.10;46.20
21425;DHT22;10873;51.132;16.848;2022-12-10T10:30:42;24.10;46.20
21425;DHT22;10873;51.132;16.848;2022-12-10T10:33:13;24.10;46.20
21425;DHT22;10873;51.132;16.848;2022-12-10T10:35:44;24.10;46.10
21425;DHT22;10873;51.132;16.848;2022-12-10T10:38:16;24.10;46.10
21425;DHT22;10873;51.132;16.848;2022-12-10T10:40:46;24.20;46.20
21425;DHT22;10873;51.132;16.848;2022-12-10T10:43:17;24.10;46.10
21425;DHT22;10873;51.132;16.848;2022-12-10T10:45:48;24.10;46.10
21425;DHT22;10873;51.132;16.848;2022-12-10T10:48:18;24.20;46.10
21425;DHT22;10873;51.132;16.848;2022-12-10T10:50:47;24.20;46.10
21425;DHT22;10873;51.132;16.848;2022-12-10T10:53:41;24.20;46.10
21425;DHT22;10873;51.132;16.848;2022-12-10T10:56:10;24.20;46.10
21425;DHT22;10873;51.132;16.848;2022-12-10T10:58:53;24.20;46.00
21425;DHT22;10873;51.132;16.848;2022-12-10T11:01:19;24.20;46.00
21425;DHT22;10873;51.132;16.848;2022-12-10T11:03:50;24.20;46.00
21425;DHT22;10873;51.132;16.848;2022-12-10T11:06:16;24.20;45.90
21425;DHT22;10873;51.132;16.848;2022-12-10T11:08:45;24.20;45.90
21425;DHT22;10873;51.132;16.848;2022-12-10T11:11:13;24.20;45.80
21425;DHT22;10873;51.132;16.848;2022-12-10T11:13:43;24.20;45.80
21425;DHT22;10873;51.132;16.848;2022-12-10T11:16:12;24.20;45.90
21425;DHT22;10873;51.132;16.848;2022-12-10T11:18:43;24.20;45.90
21425;DHT22;10873;51.132;16.848;2022-12-10T11:21:19;24.20;45.90
21425;DHT22;10873;51.132;16.848;2022-12-10T11:23:49;24.20;45.80
21425;DHT22;10873;51.132;16.848;2022-12-10T11:26:30;24.20;45.80
21425;DHT22;10873;51.132;16.848;2022-12-10T11:29:10;24.20;45.80
21425;DHT22;10873;51.132;16.848;2022-12-10T11:31:49;24.20;45.80
21425;DHT22;10873;51.132;16.848;2022-12-10T11:34:23;24.10;45.80
21425;DHT22;10873;51.132;16.848;2022-12-10T11:37:03;24.10;45.80
21425;DHT22;10873;51.132;16.848;2022-12-10T11:39:49;24.10;45.80
21425;DHT22;10873;51.132;16.848;2022-12-10T11:42:21;24.10;45.80
21425;DHT22;10873;51.132;16.848;2022-12-10T11:44:54;24.10;45.80
21425;DHT22;10873;51.132;16.848;2022-12-10T11:47:35;24.10;45.80
21425;DHT22;10873;51.132;16.848;2022-12-10T11:50:17;24.10;45.90
21425;DHT22;10873;51.132;16.848;2022-12-10T11:52:56;24.10;45.80
21425;DHT22;10873;51.132;16.848;2022-12-10T11:55:34;24.10;45.80
21425;DHT22;10873;51.132;16.848;2022-12-10T11:58:16;24.10;45.90
21425;DHT22;10873;51.132;16.848;2022-12-10T12:00:52;24.00;45.80
21425;DHT22;10873;51.132;16.848;2022-12-10T12:03:37;24.00;45.90
21425;DHT22;10873;51.132;16.848;2022-12-10T12:06:19;24.00;45.90
21425;DHT22;10873;51.132;16.848;2022-12-10T12:08:55;24.00;45.80
21425;DHT22;10873;51.132;16.848;2022-12-10T12:11:36;24.00;45.80
21425;DHT22;10873;51.132;16.848;2022-12-10T12:14:12;24.10;45.80
21425;DHT22;10873;51.132;16.848;2022-12-10T12:16:42;24.10;45.70
21425;DHT22;10873;51.132;16.848;2022-12-10T12:19:14;24.10;45.70
21425;DHT22;10873;51.132;16.848;2022-12-10T12:21:43;24.10;45.70
21425;DHT22;10873;51.132;16.848;2022-12-10T12:24:16;24.10;45.60
21425;DHT22;10873;51.132;16.848;2022-12-10T12:26:48;24.10;45.50
21425;DHT22;10873;51.132;16.848;2022-12-10T12:29:18;24.10;45.60
21425;DHT22;10873;51.132;16.848;2022-12-10T12:31:47;24.10;45.60
21425;DHT22;10873;51.132;16.848;2022-12-10T12:34:18;24.10;45.50
21425;DHT22;10873;51.132;16.848;2022-12-10T12:36:47;24.10;45.50
21425;DHT22;10873;51.132;16.848;2022-12-10T12:39:20;24.10;45.50
21425;DHT22;10873;51.132;16.848;2022-12-10T12:41:57;24.10;45.50
21425;DHT22;10873;51.132;16.848;2022-12-10T12:44:29;24.10;45.60
21425;DHT22;10873;51.132;16.848;2022-12-10T12:47:03;24.00;45.70
21425;DHT22;10873;51.132;16.848;2022-12-10T12:49:33;24.00;45.80
21425;DHT22;10873;51.132;16.848;2022-12-10T12:52:05;24.00;45.80
21425;DHT22;10873;51.132;16.848;2022-12-10T12:54:40;24.00;45.80
21425;DHT22;10873;51.132;16.848;2022-12-10T12:57:12;24.00;45.70
21425;DHT22;10873;51.132;16.848;2022-12-10T12:59:53;24.00;45.50
21425;DHT22;10873;51.132;16.848;2022-12-10T13:02:45;24.00;45.50
21425;DHT22;10873;51.132;16.848;2022-12-10T13:05:14;24.00;45.50
21425;DHT22;10873;51.132;16.848;2022-12-10T13:07:40;24.00;45.50
21425;DHT22;10873;51.132;16.848;2022-12-10T13:10:26;24.00;45.70
21425;DHT22;10873;51.132;16.848;2022-12-10T13:13:07;24.00;45.70
21425;DHT22;10873;51.132;16.848;2022-12-10T13:15:34;24.00;45.10
21425;DHT22;10873;51.132;16.848;2022-12-10T13:18:16;24.00;44.20
21425;DHT22;10873;51.132;16.848;2022-12-10T13:20:47;23.90;44.10
21425;DHT22;10873;51.132;16.848;2022-12-10T13:23:34;23.90;44.30
21425;DHT22;10873;51.132;16.848;2022-12-10T13:26:24;23.90;44.50
21425;DHT22;10873;51.132;16.848;2022-12-10T13:31:35;23.90;44.50
21425;DHT22;10873;51.132;16.848;2022-12-10T13:39:30;23.90;44.90
21425;DHT22;10873;51.132;16.848;2022-12-10T13:42:26;23.90;44.90
21425;DHT22;10873;51.132;16.848;2022-12-10T13:45:29;23.90;44.90
21425;DHT22;10873;51.132;16.848;2022-12-10T13:48:26;23.90;44.90
21425;DHT22;10873;51.132;16.848;2022-12-10T13:51:06;23.90;44.90
21425;DHT22;10873;51.132;16.848;2022-12-10T13:53:43;23.90;45.00
21425;DHT22;10873;51.132;16.848;2022-12-10T13:56:17;23.90;45.10
21425;DHT22;10873;51.132;16.848;2022-12-10T13:58:50;23.90;45.30
21425;DHT22;10873;51.132;16.848;2022-12-10T14:01:30;23.90;45.50
21425;DHT22;10873;51.132;16.848;2022-12-10T14:06:58;23.90;45.70
21425;DHT22;10873;51.132;16.848;2022-12-10T14:09:27;23.90;45.70
21425;DHT22;10873;51.132;16.848;2022-12-10T14:11:56;23.90;45.70
21425;DHT22;10873;51.132;16.848;2022-12-10T14:14:28;23.90;45.70
21425;DHT22;10873;51.132;16.848;2022-12-10T14:16:59;23.90;45.70
21425;DHT22;10873;51.132;16.848;2022-12-10T14:19:27;23.90;45.70
21425;DHT22;10873;51.132;16.848;2022-12-10T14:21:55;23.80;45.70
21425;DHT22;10873;51.132;16.848;2022-12-10T14:24:30;23.90;46.00
21425;DHT22;10873;51.132;16.848;2022-12-10T14:27:01;23.90;46.10
21425;DHT22;10873;51.132;16.848;2022-12-10T14:29:28;23.80;46.10
21425;DHT22;10873;51.132;16.848;2022-12-10T14:31:55;23.90;46.20
21425;DHT22;10873;51.132;16.848;2022-12-10T14:34:24;23.90;46.10
21425;DHT22;10873;51.132;16.848;2022-12-10T14:36:53;23.90;46.10
21425;DHT22;10873;51.132;16.848;2022-12-10T14:39:25;23.90;46.00
21425;DHT22;10873;51.132;16.848;2022-12-10T14:41:55;23.90;46.00
21425;DHT22;10873;51.132;16.848;2022-12-10T14:44:22;23.90;46.20
21425;DHT22;10873;51.132;16.848;2022-12-10T14:47:01;23.90;47.00
21425;DHT22;10873;51.132;16.848;2022-12-10T14:49:28;23.90;47.30
21425;DHT22;10873;51.132;16.848;2022-12-10T14:51:55;23.80;47.30
21425;DHT22;10873;51.132;16.848;2022-12-10T14:54:32;23.80;47.30
21425;DHT22;10873;51.132;16.848;2022-12-10T14:57:03;23.80;47.40
21425;DHT22;10873;51.132;16.848;2022-12-10T14:59:32;23.80;47.50
21425;DHT22;10873;51.132;16.848;2022-12-10T15:02:11;23.80;47.50
21425;DHT22;10873;51.132;16.848;2022-12-10T15:04:43;23.80;47.50
21425;DHT22;10873;51.132;16.848;2022-12-10T15:07:13;23.80;47.50
21425;DHT22;10873;51.132;16.848;2022-12-10T15:09:40;23.90;47.50
21425;DHT22;10873;51.132;16.848;2022-12-10T15:12:20;23.90;47.50
21425;DHT22;10873;51.132;16.848;2022-12-10T15:14:47;23.90;47.50
21425;DHT22;10873;51.132;16.848;2022-12-10T15:17:35;23.90;47.40
21425;DHT22;10873;51.132;16.848;2022-12-10T15:20:02;23.90;47.40
21425;DHT22;10873;51.132;16.848;2022-12-10T15:22:30;23.90;47.40
21425;DHT22;10873;51.132;16.848;2022-12-10T15:24:56;23.90;47.40
21425;DHT22;10873;51.132;16.848;2022-12-10T15:27:24;23.90;47.40
21425;DHT22;10873;51.132;16.848;2022-12-10T15:29:51;23.90;47.30
21425;DHT22;10873;51.132;16.848;2022-12-10T15:32:20;23.90;47.40
21425;DHT22;10873;51.132;16.848;2022-12-10T15:34:53;23.90;47.40
21425;DHT22;10873;51.132;16.848;2022-12-10T15:37:23;23.90;47.30
21425;DHT22;10873;51.132;16.848;2022-12-10T15:39:52;24.00;47.30
21425;DHT22;10873;51.132;16.848;2022-12-10T15:42:30;23.90;47.00
21425;DHT22;10873;51.132;16.848;2022-12-10T15:44:59;23.90;46.90